sensor_id;sensor_type;location;lat;lon;timestamp;pressure;altitude;pressure_sealevel;temperature;humidity
57050;BME280;42935;50.966;16.992;2024-01-27T00:03:08;102216.30;;;3.40;100.00
57050;BME280;42935;50.966;16.992;2024-01-27T00:06:29;102202.37;;;3.28;100.00
57050;BME280;42935;50.966;16.992;2024-01-27T00:09:48;102219.68;;;3.37;100.00
57050;BME280;42935;50.966;16.992;2024-01-27T00:13:05;102227.02;;;3.36;100.00
57050;BME280;42935;50.966;16.992;2024-01-27T00:16:20;102209.25;;;3.24;100.00
57050;BME280;42935;50.966;16.992;2024-01-27T00:20:11;102245.14;;;3.41;100.00
57050;BME280;42935;50.966;16.992;2024-01-27T00:23:28;102248.47;;;3.40;100.00
57050;BME280;42935;50.966;16.992;2024-01-27T00:26:45;102249.00;;;3.40;100.00
57050;BME280;42935;50.966;16.992;2024-01-27T00:30:02;102271.11;;;3.52;100.00
57050;BME280;42935;50.966;16.992;2024-01-27T00:33:21;102284.35;;;3.48;100.00
57050;BME280;42935;50.966;16.992;2024-01-27T00:36:39;102282.05;;;3.51;100.00
57050;BME280;42935;50.966;16.992;2024-01-27T00:40:36;102292.15;;;3.48;100.00
57050;BME280;42935;50.966;16.992;2024-01-27T00:43:55;102300.02;;;3.53;100.00
57050;BME280;42935;50.966;16.992;2024-01-27T00:47:15;102287.33;;;3.45;100.00
57050;BME280;42935;50.966;16.992;2024-01-27T00:50:31;102282.66;;;3.47;100.00
57050;BME280;42935;50.966;16.992;2024-01-27T00:53:52;102277.05;;;3.39;100.00
57050;BME280;42935;50.966;16.992;2024-01-27T00:57:10;102283.89;;;3.41;100.00
57050;BME280;42935;50.966;16.992;2024-01-27T01:00:26;102299.44;;;3.50;100.00
57050;BME280;42935;50.966;16.992;2024-01-27T01:03:50;102273.64;;;3.46;100.00
57050;BME280;42935;50.966;16.992;2024-01-27T01:07:15;102284.71;;;3.43;100.00
57050;BME280;42935;50.966;16.992;2024-01-27T01:10:33;102289.77;;;3.47;100.00
57050;BME280;42935;50.966;16.992;2024-01-27T01:13:48;102283.45;;;3.39;100.00
57050;BME280;42935;50.966;16.992;2024-01-27T01:17:05;102279.47;;;3.44;100.00
57050;BME280;42935;50.966;16.992;2024-01-27T01:20:23;102289.25;;;3.41;100.00
57050;BME280;42935;50.966;16.992;2024-01-27T01:23:45;102282.60;;;3.32;100.00
57050;BME280;42935;50.966;16.992;2024-01-27T01:27:03;102261.61;;;3.16;100.00
57050;BME280;42935;50.966;16.992;2024-01-27T01:30:24;102282.42;;;3.25;100.00
57050;BME280;42935;50.966;16.992;2024-01-27T01:33:44;102286.72;;;3.25;100.00
57050;BME280;42935;50.966;16.992;2024-01-27T01:37:01;102297.47;;;3.20;100.00
57050;BME280;42935;50.966;16.992;2024-01-27T01:40:19;102284.30;;;3.06;100.00
57050;BME280;42935;50.966;16.992;2024-01-27T01:43:38;102290.00;;;3.10;100.00
57050;BME280;42935;50.966;16.992;2024-01-27T01:46:57;102294.07;;;3.10;100.00
57050;BME280;42935;50.966;16.992;2024-01-27T01:50:22;102272.80;;;2.86;100.00
57050;BME280;42935;50.966;16.992;2024-01-27T01:53:39;102283.71;;;3.00;100.00
57050;BME280;42935;50.966;16.992;2024-01-27T01:56:58;102309.18;;;3.04;100.00
57050;BME280;42935;50.966;16.992;2024-01-27T02:00:15;102301.13;;;3.02;100.00
57050;BME280;42935;50.966;16.992;2024-01-27T02:03:30;102307.73;;;3.04;100.00
57050;BME280;42935;50.966;16.992;2024-01-27T02:06:50;102300.02;;;3.06;100.00
57050;BME280;42935;50.966;16.992;2024-01-27T02:10:15;102306.29;;;3.01;100.00
57050;BME280;42935;50.966;16.992;2024-01-27T02:13:31;102309.30;;;2.98;100.00
57050;BME280;42935;50.966;16.992;2024-01-27T02:16:48;102298.60;;;3.00;100.00
57050;BME280;42935;50.966;16.992;2024-01-27T02:20:08;102286.95;;;2.99;100.00
57050;BME280;42935;50.966;16.992;2024-01-27T02:23:25;102298.98;;;2.92;100.00
57050;BME280;42935;50.966;16.992;2024-01-27T02:26:42;102307.67;;;2.87;100.00
57050;BME280;42935;50.966;16.992;2024-01-27T02:30:01;102305.72;;;2.92;100.00
57050;BME280;42935;50.966;16.992;2024-01-27T02:33:37;102306.52;;;2.93;100.00
57050;BME280;42935;50.966;16.992;2024-01-27T02:36:55;102300.59;;;2.84;100.00
57050;BME280;42935;50.966;16.992;2024-01-27T02:40:13;102325.98;;;2.92;100.00
57050;BME280;42935;50.966;16.992;2024-01-27T02:43:33;102327.34;;;2.99;100.00
57050;BME280;42935;50.966;16.992;2024-01-27T02:46:51;102318.96;;;2.98;99.23
57050;BME280;42935;50.966;16.992;2024-01-27T02:50:09;102324.09;;;2.96;99.99
57050;BME280;42935;50.966;16.992;2024-01-27T02:53:26;102334.91;;;3.01;98.27
57050;BME280;42935;50.966;16.992;2024-01-27T02:56:43;102346.65;;;3.00;97.38
57050;BME280;42935;50.966;16.992;2024-01-27T02:59:58;102345.88;;;2.96;97.14
57050;BME280;42935;50.966;16.992;2024-01-27T03:03:16;102324.33;;;2.73;97.86
57050;BME280;42935;50.966;16.992;2024-01-27T03:06:36;102336.12;;;2.81;98.24
57050;BME280;42935;50.966;16.992;2024-01-27T03:09:53;102354.61;;;2.77;99.18
57050;BME280;42935;50.966;16.992;2024-01-27T03:13:16;102359.39;;;2.85;98.42
57050;BME280;42935;50.966;16.992;2024-01-27T03:16:38;102350.85;;;2.78;97.93
57050;BME280;42935;50.966;16.992;2024-01-27T03:19:58;102375.70;;;2.84;96.79
57050;BME280;42935;50.966;16.992;2024-01-27T03:23:16;102360.50;;;2.74;97.44
57050;BME280;42935;50.966;16.992;2024-01-27T03:26:34;102370.45;;;2.74;97.51
57050;BME280;42935;50.966;16.992;2024-01-27T03:29:51;102358.58;;;2.57;97.46
57050;BME280;42935;50.966;16.992;2024-01-27T03:33:11;102382.13;;;2.81;97.28
57050;BME280;42935;50.966;16.992;2024-01-27T03:36:28;102384.30;;;2.85;96.97
57050;BME280;42935;50.966;16.992;2024-01-27T03:39:45;102383.22;;;2.84;97.41
57050;BME280;42935;50.966;16.992;2024-01-27T03:43:02;102383.38;;;2.81;97.85
57050;BME280;42935;50.966;16.992;2024-01-27T03:46:23;102388.42;;;2.82;96.68
57050;BME280;42935;50.966;16.992;2024-01-27T03:49:47;102391.62;;;2.76;96.58
57050;BME280;42935;50.966;16.992;2024-01-27T03:53:07;102399.74;;;2.80;96.15
57050;BME280;42935;50.966;16.992;2024-01-27T03:56:26;102408.22;;;2.83;96.33
57050;BME280;42935;50.966;16.992;2024-01-27T03:59:42;102430.81;;;2.78;98.57
57050;BME280;42935;50.966;16.992;2024-01-27T04:02:59;102408.19;;;2.78;96.81
57050;BME280;42935;50.966;16.992;2024-01-27T04:06:17;102413.50;;;2.73;97.99
57050;BME280;42935;50.966;16.992;2024-01-27T04:09:38;102412.63;;;2.75;98.65
57050;BME280;42935;50.966;16.992;2024-01-27T04:12:56;102419.69;;;2.70;100.00
57050;BME280;42935;50.966;16.992;2024-01-27T04:16:13;102426.43;;;2.74;99.80
57050;BME280;42935;50.966;16.992;2024-01-27T04:19:33;102428.43;;;2.68;100.00
57050;BME280;42935;50.966;16.992;2024-01-27T04:22:50;102425.33;;;2.70;100.00
57050;BME280;42935;50.966;16.992;2024-01-27T04:26:11;102434.94;;;2.69;100.00
57050;BME280;42935;50.966;16.992;2024-01-27T04:29:29;102435.11;;;2.66;100.00
57050;BME280;42935;50.966;16.992;2024-01-27T04:32:47;102434.23;;;2.69;97.33
57050;BME280;42935;50.966;16.992;2024-01-27T04:36:11;102429.37;;;2.70;95.35
57050;BME280;42935;50.966;16.992;2024-01-27T04:39:27;102422.84;;;2.63;97.20
57050;BME280;42935;50.966;16.992;2024-01-27T04:42:43;102438.23;;;2.65;96.29
57050;BME280;42935;50.966;16.992;2024-01-27T04:46:01;102427.22;;;2.55;97.01
57050;BME280;42935;50.966;16.992;2024-01-27T04:49:22;102435.39;;;2.54;97.01
57050;BME280;42935;50.966;16.992;2024-01-27T04:52:38;102433.51;;;2.52;96.41
57050;BME280;42935;50.966;16.992;2024-01-27T04:55:57;102434.23;;;2.45;97.00
57050;BME280;42935;50.966;16.992;2024-01-27T04:59:12;102429.14;;;2.49;95.07
57050;BME280;42935;50.966;16.992;2024-01-27T05:02:31;102435.70;;;2.48;94.66
57050;BME280;42935;50.966;16.992;2024-01-27T05:05:49;102439.13;;;2.41;96.04
57050;BME280;42935;50.966;16.992;2024-01-27T05:09:04;102430.98;;;2.41;95.79
57050;BME280;42935;50.966;16.992;2024-01-27T05:12:29;102442.49;;;2.37;95.94
57050;BME280;42935;50.966;16.992;2024-01-27T05:15:49;102415.39;;;2.42;94.18
57050;BME280;42935;50.966;16.992;2024-01-27T05:19:06;102414.63;;;2.34;94.51
57050;BME280;42935;50.966;16.992;2024-01-27T05:22:24;102391.64;;;2.17;95.97
57050;BME280;42935;50.966;16.992;2024-01-27T05:25:44;102431.58;;;2.33;96.04
57050;BME280;42935;50.966;16.992;2024-01-27T05:29:01;102445.13;;;2.32;96.24
57050;BME280;42935;50.966;16.992;2024-01-27T05:32:20;102450.24;;;2.30;96.04
57050;BME280;42935;50.966;16.992;2024-01-27T05:35:36;102427.13;;;2.20;96.72
57050;BME280;42935;50.966;16.992;2024-01-27T05:38:56;102448.67;;;2.33;95.40
57050;BME280;42935;50.966;16.992;2024-01-27T05:42:14;102455.16;;;2.26;96.17
57050;BME280;42935;50.966;16.992;2024-01-27T05:45:34;102457.80;;;2.21;95.96
57050;BME280;42935;50.966;16.992;2024-01-27T05:48:53;102456.69;;;2.17;95.07
57050;BME280;42935;50.966;16.992;2024-01-27T05:52:16;102457.66;;;2.08;95.92
57050;BME280;42935;50.966;16.992;2024-01-27T05:55:32;102451.94;;;2.09;96.31
57050;BME280;42935;50.966;16.992;2024-01-27T05:58:52;102455.17;;;2.08;95.28
57050;BME280;42935;50.966;16.992;2024-01-27T06:02:09;102455.62;;;2.03;96.20
57050;BME280;42935;50.966;16.992;2024-01-27T06:05:24;102453.82;;;1.91;96.70
57050;BME280;42935;50.966;16.992;2024-01-27T06:08:41;102454.53;;;2.01;96.02
57050;BME280;42935;50.966;16.992;2024-01-27T06:12:00;102463.37;;;2.01;95.79
57050;BME280;42935;50.966;16.992;2024-01-27T06:15:19;102450.63;;;1.85;96.26
57050;BME280;42935;50.966;16.992;2024-01-27T06:18:38;102472.16;;;1.92;97.07
57050;BME280;42935;50.966;16.992;2024-01-27T06:21:53;102478.45;;;1.90;96.84
57050;BME280;42935;50.966;16.992;2024-01-27T06:25:11;102477.93;;;1.84;97.45
57050;BME280;42935;50.966;16.992;2024-01-27T06:29:02;102501.20;;;1.90;97.13
57050;BME280;42935;50.966;16.992;2024-01-27T06:32:23;102492.26;;;1.84;97.88
57050;BME280;42935;50.966;16.992;2024-01-27T06:36:13;102521.90;;;1.98;98.19
57050;BME280;42935;50.966;16.992;2024-01-27T06:39:39;102514.52;;;2.05;97.19
57050;BME280;42935;50.966;16.992;2024-01-27T06:43:29;102534.73;;;2.09;97.90
57050;BME280;42935;50.966;16.992;2024-01-27T06:46:45;102542.17;;;2.18;97.05
57050;BME280;42935;50.966;16.992;2024-01-27T06:50:09;102546.66;;;2.19;97.55
57050;BME280;42935;50.966;16.992;2024-01-27T06:53:26;102536.54;;;2.14;98.76
57050;BME280;42935;50.966;16.992;2024-01-27T06:57:22;102552.88;;;2.23;98.09
57050;BME280;42935;50.966;16.992;2024-01-27T07:00:38;102540.98;;;2.17;98.41
57050;BME280;42935;50.966;16.992;2024-01-27T07:03:58;102537.52;;;2.30;97.60
57050;BME280;42935;50.966;16.992;2024-01-27T07:07:16;102517.32;;;2.26;97.33
57050;BME280;42935;50.966;16.992;2024-01-27T07:10:33;102509.16;;;2.23;98.54
57050;BME280;42935;50.966;16.992;2024-01-27T07:13:48;102510.16;;;2.27;97.32
57050;BME280;42935;50.966;16.992;2024-01-27T07:17:39;102507.13;;;2.31;96.95
57050;BME280;42935;50.966;16.992;2024-01-27T07:20:55;102513.98;;;2.37;96.36
57050;BME280;42935;50.966;16.992;2024-01-27T07:24:16;102501.38;;;2.35;95.56
57050;BME280;42935;50.966;16.992;2024-01-27T07:27:31;102505.95;;;2.40;96.04
57050;BME280;42935;50.966;16.992;2024-01-27T07:30:51;102512.23;;;2.43;95.17
57050;BME280;42935;50.966;16.992;2024-01-27T07:34:11;102519.62;;;2.48;95.85
57050;BME280;42935;50.966;16.992;2024-01-27T07:37:30;102548.44;;;2.45;97.35
57050;BME280;42935;50.966;16.992;2024-01-27T07:40:46;102519.86;;;2.41;97.28
57050;BME280;42935;50.966;16.992;2024-01-27T07:44:09;102554.95;;;2.49;97.34
57050;BME280;42935;50.966;16.992;2024-01-27T07:47:27;102524.84;;;2.44;97.98
57050;BME280;42935;50.966;16.992;2024-01-27T07:50:47;102531.66;;;2.49;96.53
57050;BME280;42935;50.966;16.992;2024-01-27T07:54:38;102542.34;;;2.45;97.33
57050;BME280;42935;50.966;16.992;2024-01-27T07:57:57;102555.29;;;2.47;99.44
57050;BME280;42935;50.966;16.992;2024-01-27T08:01:15;102555.71;;;2.47;99.92
57050;BME280;42935;50.966;16.992;2024-01-27T08:04:38;102542.51;;;2.49;98.31
57050;BME280;42935;50.966;16.992;2024-01-27T08:07:54;102563.20;;;2.52;100.00
57050;BME280;42935;50.966;16.992;2024-01-27T08:11:17;102568.52;;;2.69;98.12
57050;BME280;42935;50.966;16.992;2024-01-27T08:14:33;102549.61;;;2.70;98.57
57050;BME280;42935;50.966;16.992;2024-01-27T08:17:51;102551.02;;;2.70;99.63
57050;BME280;42935;50.966;16.992;2024-01-27T08:21:11;102553.93;;;2.77;98.49
57050;BME280;42935;50.966;16.992;2024-01-27T08:24:26;102560.61;;;2.81;98.09
57050;BME280;42935;50.966;16.992;2024-01-27T08:27:45;102574.79;;;2.81;99.24
57050;BME280;42935;50.966;16.992;2024-01-27T08:31:03;102571.85;;;2.77;98.25
57050;BME280;42935;50.966;16.992;2024-01-27T08:34:19;102588.56;;;2.89;97.55
57050;BME280;42935;50.966;16.992;2024-01-27T08:37:37;102591.73;;;2.91;98.62
57050;BME280;42935;50.966;16.992;2024-01-27T08:40:57;102597.11;;;2.95;97.34
57050;BME280;42935;50.966;16.992;2024-01-27T08:44:15;102599.85;;;2.97;98.04
57050;BME280;42935;50.966;16.992;2024-01-27T08:47:31;102594.99;;;3.00;96.97
57050;BME280;42935;50.966;16.992;2024-01-27T08:50:48;102613.15;;;3.04;96.50
57050;BME280;42935;50.966;16.992;2024-01-27T08:54:07;102615.61;;;3.06;96.62
57050;BME280;42935;50.966;16.992;2024-01-27T08:57:23;102617.04;;;3.02;99.05
57050;BME280;42935;50.966;16.992;2024-01-27T09:00:41;102619.66;;;3.11;97.39
57050;BME280;42935;50.966;16.992;2024-01-27T09:04:32;102629.39;;;3.12;96.05
57050;BME280;42935;50.966;16.992;2024-01-27T09:07:50;102621.39;;;3.10;95.04
57050;BME280;42935;50.966;16.992;2024-01-27T09:11:10;102586.09;;;2.90;97.09
57050;BME280;42935;50.966;16.992;2024-01-27T09:14:27;102645.64;;;3.23;96.17
57050;BME280;42935;50.966;16.992;2024-01-27T09:18:17;102638.05;;;3.24;95.62
57050;BME280;42935;50.966;16.992;2024-01-27T09:21:31;102636.26;;;3.24;94.13
57050;BME280;42935;50.966;16.992;2024-01-27T09:24:48;102630.52;;;3.16;95.94
57050;BME280;42935;50.966;16.992;2024-01-27T09:28:15;102644.23;;;3.22;95.82
57050;BME280;42935;50.966;16.992;2024-01-27T09:31:34;102645.61;;;3.26;95.00
57050;BME280;42935;50.966;16.992;2024-01-27T09:35:22;102639.33;;;3.21;93.52
57050;BME280;42935;50.966;16.992;2024-01-27T09:38:41;102663.49;;;3.25;95.75
57050;BME280;42935;50.966;16.992;2024-01-27T09:41:57;102658.09;;;3.20;94.10
57050;BME280;42935;50.966;16.992;2024-01-27T09:45:14;102653.52;;;3.27;95.05
57050;BME280;42935;50.966;16.992;2024-01-27T09:48:41;102657.60;;;3.30;94.67
57050;BME280;42935;50.966;16.992;2024-01-27T09:52:30;102664.66;;;3.34;94.09
57050;BME280;42935;50.966;16.992;2024-01-27T09:56:21;102669.08;;;3.31;93.64
57050;BME280;42935;50.966;16.992;2024-01-27T09:59:41;102629.31;;;3.10;94.76
57050;BME280;42935;50.966;16.992;2024-01-27T10:03:05;102678.73;;;3.40;94.09
57050;BME280;42935;50.966;16.992;2024-01-27T10:06:21;102683.53;;;3.43;95.49
57050;BME280;42935;50.966;16.992;2024-01-27T10:09:48;102665.54;;;3.43;95.29
57050;BME280;42935;50.966;16.992;2024-01-27T10:13:07;102699.93;;;3.51;94.56
57050;BME280;42935;50.966;16.992;2024-01-27T10:16:25;102692.77;;;3.55;94.88
57050;BME280;42935;50.966;16.992;2024-01-27T10:20:16;102676.63;;;3.42;94.88
57050;BME280;42935;50.966;16.992;2024-01-27T10:24:06;102689.19;;;3.57;94.60
57050;BME280;42935;50.966;16.992;2024-01-27T10:27:58;102690.91;;;3.59;94.21
57050;BME280;42935;50.966;16.992;2024-01-27T10:31:17;102705.34;;;3.67;92.77
57050;BME280;42935;50.966;16.992;2024-01-27T10:34:41;102696.83;;;3.74;92.10
57050;BME280;42935;50.966;16.992;2024-01-27T10:37:59;102693.66;;;3.91;92.66
57050;BME280;42935;50.966;16.992;2024-01-27T10:41:51;102706.70;;;3.97;93.02
57050;BME280;42935;50.966;16.992;2024-01-27T10:45:12;102695.22;;;4.02;95.15
57050;BME280;42935;50.966;16.992;2024-01-27T10:48:31;102691.03;;;4.10;92.11
57050;BME280;42935;50.966;16.992;2024-01-27T10:52:24;102695.52;;;4.19;91.90
57050;BME280;42935;50.966;16.992;2024-01-27T10:56:23;102694.14;;;4.21;92.85
57050;BME280;42935;50.966;16.992;2024-01-27T11:00:15;102696.53;;;4.18;92.43
57050;BME280;42935;50.966;16.992;2024-01-27T11:04:05;102698.80;;;4.12;92.24
57050;BME280;42935;50.966;16.992;2024-01-27T11:07:55;102698.01;;;4.04;91.23
57050;BME280;42935;50.966;16.992;2024-01-27T11:11:17;102682.73;;;4.00;92.18
57050;BME280;42935;50.966;16.992;2024-01-27T11:15:08;102675.55;;;4.05;91.25
57050;BME280;42935;50.966;16.992;2024-01-27T11:18:26;102705.88;;;4.14;91.05
57050;BME280;42935;50.966;16.992;2024-01-27T11:21:42;102692.01;;;4.32;92.36
57050;BME280;42935;50.966;16.992;2024-01-27T11:25:33;102678.67;;;4.39;90.74
57050;BME280;42935;50.966;16.992;2024-01-27T11:29:23;102707.75;;;4.57;89.58
57050;BME280;42935;50.966;16.992;2024-01-27T11:32:49;102729.78;;;4.45;89.53
57050;BME280;42935;50.966;16.992;2024-01-27T11:36:05;102718.49;;;4.38;89.82
57050;BME280;42935;50.966;16.992;2024-01-27T11:43:59;102719.34;;;4.50;88.30
57050;BME280;42935;50.966;16.992;2024-01-27T11:47:17;102738.13;;;4.65;87.86
57050;BME280;42935;50.966;16.992;2024-01-27T11:50:35;102716.62;;;4.63;83.95
57050;BME280;42935;50.966;16.992;2024-01-27T11:53:53;102733.33;;;4.56;85.94
57050;BME280;42935;50.966;16.992;2024-01-27T11:57:11;102727.19;;;4.44;86.49
57050;BME280;42935;50.966;16.992;2024-01-27T12:01:00;102728.25;;;4.38;86.73
57050;BME280;42935;50.966;16.992;2024-01-27T12:04:20;102732.97;;;4.40;87.27
57050;BME280;42935;50.966;16.992;2024-01-27T12:07:41;102741.45;;;4.54;88.10
57050;BME280;42935;50.966;16.992;2024-01-27T12:10:59;102736.65;;;4.72;87.22
57050;BME280;42935;50.966;16.992;2024-01-27T12:14:47;102678.03;;;4.31;87.22
57050;BME280;42935;50.966;16.992;2024-01-27T12:18:38;102743.96;;;4.69;85.17
57050;BME280;42935;50.966;16.992;2024-01-27T12:21:58;102742.15;;;4.69;84.27
57050;BME280;42935;50.966;16.992;2024-01-27T12:25:17;102752.80;;;4.77;87.56
57050;BME280;42935;50.966;16.992;2024-01-27T12:28:46;102752.70;;;4.93;86.65
57050;BME280;42935;50.966;16.992;2024-01-27T12:32:05;102758.18;;;4.90;85.34
57050;BME280;42935;50.966;16.992;2024-01-27T12:35:54;102774.83;;;4.98;87.69
57050;BME280;42935;50.966;16.992;2024-01-27T12:39:13;102750.62;;;5.06;88.42
57050;BME280;42935;50.966;16.992;2024-01-27T12:42:31;102764.93;;;5.21;87.89
57050;BME280;42935;50.966;16.992;2024-01-27T12:46:22;102775.87;;;5.16;84.89
57050;BME280;42935;50.966;16.992;2024-01-27T12:49:47;102784.33;;;5.33;85.82
57050;BME280;42935;50.966;16.992;2024-01-27T12:53:09;102781.95;;;5.09;84.69
57050;BME280;42935;50.966;16.992;2024-01-27T12:56:27;102772.20;;;5.35;84.74
57050;BME280;42935;50.966;16.992;2024-01-27T12:59:45;102788.83;;;5.41;85.10
57050;BME280;42935;50.966;16.992;2024-01-27T13:03:04;102798.03;;;5.49;87.44
57050;BME280;42935;50.966;16.992;2024-01-27T13:06:29;102808.36;;;5.30;85.23
57050;BME280;42935;50.966;16.992;2024-01-27T13:09:50;102793.49;;;5.21;84.85
57050;BME280;42935;50.966;16.992;2024-01-27T13:13:09;102793.60;;;5.16;85.56
57050;BME280;42935;50.966;16.992;2024-01-27T13:16:30;102792.54;;;5.18;85.27
57050;BME280;42935;50.966;16.992;2024-01-27T13:19:54;102814.97;;;5.33;83.48
57050;BME280;42935;50.966;16.992;2024-01-27T13:23:16;102789.45;;;5.40;84.57
57050;BME280;42935;50.966;16.992;2024-01-27T13:26:37;102813.16;;;5.33;84.25
57050;BME280;42935;50.966;16.992;2024-01-27T13:30:00;102816.95;;;5.38;83.14
57050;BME280;42935;50.966;16.992;2024-01-27T13:33:21;102828.03;;;5.32;83.43
57050;BME280;42935;50.966;16.992;2024-01-27T13:36:38;102813.33;;;5.14;83.82
57050;BME280;42935;50.966;16.992;2024-01-27T13:39:54;102814.97;;;5.11;84.83
57050;BME280;42935;50.966;16.992;2024-01-27T13:43:12;102825.55;;;5.13;84.95
57050;BME280;42935;50.966;16.992;2024-01-27T13:46:34;102828.22;;;5.00;83.53
57050;BME280;42935;50.966;16.992;2024-01-27T13:49:53;102822.92;;;5.00;83.04
57050;BME280;42935;50.966;16.992;2024-01-27T13:53:11;102833.89;;;4.98;84.87
57050;BME280;42935;50.966;16.992;2024-01-27T13:56:28;102849.15;;;4.89;84.14
57050;BME280;42935;50.966;16.992;2024-01-27T13:59:53;102840.97;;;4.88;84.44
57050;BME280;42935;50.966;16.992;2024-01-27T14:03:11;102851.91;;;4.89;86.71
57050;BME280;42935;50.966;16.992;2024-01-27T14:07:03;102850.99;;;5.08;85.46
57050;BME280;42935;50.966;16.992;2024-01-27T14:10:26;102824.37;;;4.94;85.59
57050;BME280;42935;50.966;16.992;2024-01-27T14:13:44;102878.56;;;5.26;86.26
57050;BME280;42935;50.966;16.992;2024-01-27T14:17:39;102877.37;;;5.24;87.93
57050;BME280;42935;50.966;16.992;2024-01-27T14:20:57;102888.35;;;5.00;91.17
57050;BME280;42935;50.966;16.992;2024-01-27T14:24:15;102890.52;;;4.86;93.99
57050;BME280;42935;50.966;16.992;2024-01-27T14:27:40;102895.16;;;4.70;93.70
57050;BME280;42935;50.966;16.992;2024-01-27T14:30:59;102901.97;;;4.75;94.13
57050;BME280;42935;50.966;16.992;2024-01-27T14:34:19;102907.55;;;4.66;95.99
57050;BME280;42935;50.966;16.992;2024-01-27T14:37:40;102923.34;;;4.63;95.32
57050;BME280;42935;50.966;16.992;2024-01-27T14:41:01;102908.84;;;4.59;97.07
57050;BME280;42935;50.966;16.992;2024-01-27T14:44:22;102923.81;;;4.48;97.15
57050;BME280;42935;50.966;16.992;2024-01-27T14:47:40;102925.13;;;4.49;98.31
57050;BME280;42935;50.966;16.992;2024-01-27T14:51:01;102925.80;;;4.59;97.42
57050;BME280;42935;50.966;16.992;2024-01-27T14:54:24;102925.74;;;4.45;98.23
57050;BME280;42935;50.966;16.992;2024-01-27T14:58:17;102923.59;;;4.42;98.02
57050;BME280;42935;50.966;16.992;2024-01-27T15:01:38;102927.86;;;4.39;98.67
57050;BME280;42935;50.966;16.992;2024-01-27T15:04:54;102931.62;;;4.37;99.65
57050;BME280;42935;50.966;16.992;2024-01-27T15:08:14;102942.56;;;4.32;100.00
57050;BME280;42935;50.966;16.992;2024-01-27T15:11:32;102949.70;;;4.26;100.00
57050;BME280;42935;50.966;16.992;2024-01-27T15:14:53;102947.84;;;4.22;100.00
57050;BME280;42935;50.966;16.992;2024-01-27T15:18:20;102957.74;;;4.13;100.00
57050;BME280;42935;50.966;16.992;2024-01-27T15:22:16;102964.09;;;4.08;100.00
57050;BME280;42935;50.966;16.992;2024-01-27T15:25:39;102971.31;;;4.04;100.00
57050;BME280;42935;50.966;16.992;2024-01-27T15:29:00;102973.42;;;3.97;100.00
57050;BME280;42935;50.966;16.992;2024-01-27T15:32:22;102975.43;;;3.88;100.00
57050;BME280;42935;50.966;16.992;2024-01-27T15:35:42;102988.20;;;3.89;100.00
57050;BME280;42935;50.966;16.992;2024-01-27T15:39:33;103004.05;;;3.94;100.00
57050;BME280;42935;50.966;16.992;2024-01-27T15:43:07;103004.00;;;3.88;100.00
57050;BME280;42935;50.966;16.992;2024-01-27T15:46:30;103009.63;;;3.84;100.00
57050;BME280;42935;50.966;16.992;2024-01-27T15:49:51;103013.24;;;3.85;100.00
57050;BME280;42935;50.966;16.992;2024-01-27T15:53:23;103004.75;;;3.75;100.00
57050;BME280;42935;50.966;16.992;2024-01-27T15:57:10;103017.73;;;3.83;100.00
57050;BME280;42935;50.966;16.992;2024-01-27T16:00:32;103020.35;;;3.81;100.00
57050;BME280;42935;50.966;16.992;2024-01-27T16:03:57;103016.92;;;3.68;100.00
57050;BME280;42935;50.966;16.992;2024-01-27T16:07:17;103039.20;;;3.62;100.00
57050;BME280;42935;50.966;16.992;2024-01-27T16:11:08;103051.52;;;3.67;100.00
57050;BME280;42935;50.966;16.992;2024-01-27T16:14:28;103053.26;;;3.58;100.00
57050;BME280;42935;50.966;16.992;2024-01-27T16:18:19;103067.84;;;3.52;100.00
57050;BME280;42935;50.966;16.992;2024-01-27T16:21:38;103072.03;;;3.41;100.00
57050;BME280;42935;50.966;16.992;2024-01-27T16:24:59;103073.39;;;3.38;100.00
57050;BME280;42935;50.966;16.992;2024-01-27T16:28:16;103076.82;;;3.28;100.00
57050;BME280;42935;50.966;16.992;2024-01-27T16:31:35;103072.70;;;3.21;100.00
57050;BME280;42935;50.966;16.992;2024-01-27T16:34:56;103087.66;;;3.17;100.00
57050;BME280;42935;50.966;16.992;2024-01-27T16:38:48;103091.19;;;3.13;100.00
57050;BME280;42935;50.966;16.992;2024-01-27T16:42:09;103095.22;;;3.15;100.00
57050;BME280;42935;50.966;16.992;2024-01-27T16:45:30;103093.79;;;3.10;100.00
57050;BME280;42935;50.966;16.992;2024-01-27T16:48:52;103088.20;;;2.97;100.00
57050;BME280;42935;50.966;16.992;2024-01-27T16:52:15;103101.91;;;3.00;100.00
57050;BME280;42935;50.966;16.992;2024-01-27T16:55:36;103099.06;;;2.97;100.00
57050;BME280;42935;50.966;16.992;2024-01-27T16:58:59;103108.69;;;2.96;100.00
57050;BME280;42935;50.966;16.992;2024-01-27T17:02:21;103128.21;;;2.99;100.00
57050;BME280;42935;50.966;16.992;2024-01-27T17:05:42;103126.22;;;2.90;100.00
57050;BME280;42935;50.966;16.992;2024-01-27T17:09:07;103139.52;;;2.90;100.00
57050;BME280;42935;50.966;16.992;2024-01-27T17:12:28;103144.19;;;2.91;100.00
57050;BME280;42935;50.966;16.992;2024-01-27T17:15:50;103156.51;;;2.88;100.00
57050;BME280;42935;50.966;16.992;2024-01-27T17:19:11;103159.62;;;2.86;100.00
57050;BME280;42935;50.966;16.992;2024-01-27T17:22:35;103161.18;;;2.87;100.00
57050;BME280;42935;50.966;16.992;2024-01-27T17:26:00;103141.45;;;2.73;100.00
57050;BME280;42935;50.966;16.992;2024-01-27T17:29:18;103166.64;;;2.83;100.00
57050;BME280;42935;50.966;16.992;2024-01-27T17:32:35;103151.30;;;2.67;100.00
57050;BME280;42935;50.966;16.992;2024-01-27T17:35:57;103166.49;;;2.77;100.00
57050;BME280;42935;50.966;16.992;2024-01-27T17:39:15;103173.45;;;2.72;100.00
57050;BME280;42935;50.966;16.992;2024-01-27T17:42:36;103180.04;;;2.61;100.00
57050;BME280;42935;50.966;16.992;2024-01-27T17:45:54;103184.59;;;2.61;100.00